Terminal Aerodrome Forecast
Issued by NWS Omaha/Valley, NE

Home | Current Version | Previous Version | Graphics & Text | Print | Product List | Glossary On
Versions: 1 2 3 4 5 6 7 8 9 10 11 12 13 14 15 16 17 18 19 20 21 22 23 24 25 26 27 28 29 30 31 32 33 34
000
FTUS43 KOAX 181127
TAFOFK
TAF
KOFK 181127Z 1812/1912 14005KT 5SM BR VCTS OVC008CB
     FM181500 17007KT P6SM OVC010
     FM181900 18008KT P6SM BKN020
     FM182100 18008KT P6SM BKN050
     FM190700 14006KT P6SM SCT008=

USA.gov is the U.S. government's official web portal to all federal, state and local government web resources and services.